Time;durP1;ratioP1;P1;durP2;ratioP2;P2;SDS_P1;SDS_P2;PMS_P1;PMS_P2;Temp;Humidity;BMP_temperature;BMP_pressure;BME280_temperature;BME280_humidity;BME280_pressure;Samples;Min_cycle;Max_cycle;Signal;HPM_P1;HPM_P2
2024/02/03 00:01:13;;;;;;;20.60;14.25;;;9.80;99.90;;;9.14;100.00;103099.28;4169348;28;20034;-71
2024/02/03 00:03:14;;;;;;;19.70;13.05;;;9.80;99.90;;;9.13;100.00;103088.84;4168866;28;20026;-72
2024/02/03 00:05:15;;;;;;;24.98;15.38;;;9.80;99.90;;;9.12;100.00;103092.41;4167991;28;20079;-71
2024/02/03 00:07:16;;;;;;;20.95;13.50;;;9.80;99.90;;;9.10;100.00;103094.31;4167987;28;20088;-72
2024/02/03 00:09:18;;;;;;;19.30;13.20;;;9.80;99.90;;;9.09;100.00;103090.81;4167548;28;20504;-71
2024/02/03 00:11:19;;;;;;;19.30;13.18;;;9.80;99.90;;;9.09;100.00;103090.81;4167742;28;20017;-71
2024/02/03 00:13:19;;;;;;;20.77;14.05;;;9.80;99.90;;;9.09;100.00;103096.06;4169572;28;20033;-71
2024/02/03 00:15:21;;;;;;;23.55;13.98;;;9.80;99.90;;;9.10;100.00;103104.81;4168267;28;20032;-71
2024/02/03 00:17:22;;;;;;;18.63;11.38;;;9.80;99.90;;;9.11;100.00;103101.28;4169450;28;20036;-71
2024/02/03 00:19:23;;;;;;;17.02;11.23;;;9.80;99.90;;;9.10;100.00;103099.56;4168241;28;20056;-71
2024/02/03 00:21:24;;;;;;;16.55;11.48;;;9.80;99.90;;;9.13;100.00;103105.50;4169261;28;20031;-71
2024/02/03 00:23:25;;;;;;;18.08;12.43;;;9.80;99.90;;;9.11;100.00;103090.75;4169459;28;20032;-71
2024/02/03 00:25:26;;;;;;;21.05;12.32;;;9.80;99.90;;;9.13;100.00;103102.03;4168019;28;20029;-71
2024/02/03 00:27:27;;;;;;;20.33;11.60;;;9.80;99.90;;;9.14;100.00;103091.38;4169156;28;20030;-72
2024/02/03 00:29:28;;;;;;;20.90;12.38;;;9.80;99.90;;;9.10;100.00;103095.16;4169178;28;20028;-71
2024/02/03 00:31:28;;;;;;;18.77;13.02;;;9.80;99.90;;;9.11;100.00;103090.75;4151699;28;20021;-71
2024/02/03 00:33:29;;;;;;;17.83;11.20;;;9.80;99.90;;;9.09;100.00;103087.31;4161671;28;20029;-71
2024/02/03 00:35:30;;;;;;;17.48;11.73;;;9.80;99.90;;;9.10;100.00;103084.63;4167906;28;20151;-71
2024/02/03 00:37:31;;;;;;;18.63;11.57;;;9.80;99.90;;;9.10;100.00;103083.75;4169031;28;20030;-71
2024/02/03 00:39:32;;;;;;;27.60;12.43;;;9.80;99.90;;;9.08;100.00;103081.22;4167893;28;20174;-71
2024/02/03 00:41:33;;;;;;;17.13;10.57;;;9.70;99.90;;;9.08;100.00;103086.47;4169049;28;20029;-71
2024/02/03 00:43:34;;;;;;;16.92;11.57;;;9.70;99.90;;;9.06;100.00;103079.59;4169100;28;20017;-71
2024/02/03 00:45:34;;;;;;;17.83;10.75;;;9.70;99.90;;;9.03;100.00;103072.75;4168784;28;20405;-72
2024/02/03 00:47:35;;;;;;;17.85;12.27;;;9.70;99.90;;;9.05;100.00;103068.22;4167745;28;20044;-71
2024/02/03 00:49:36;;;;;;;17.33;11.57;;;9.70;99.90;;;9.05;100.00;103070.84;4168994;28;20116;-71
2024/02/03 00:51:38;;;;;;;16.80;10.90;;;9.70;99.90;;;9.04;100.00;103065.69;4168900;28;20017;-71
2024/02/03 00:53:41;;;;;;;16.50;10.73;;;9.70;99.90;;;9.04;100.00;103071.81;4168352;28;20447;-71
2024/02/03 00:55:42;;;;;;;14.15;9.45;;;9.70;99.90;;;9.04;100.00;103068.31;4169020;28;20018;-71
2024/02/03 00:57:42;;;;;;;20.27;10.93;;;9.70;99.90;;;9.04;100.00;103068.31;4167690;28;20080;-71
2024/02/03 00:59:45;;;;;;;16.95;11.02;;;9.70;99.90;;;9.05;100.00;103070.03;4167618;28;20517;-71
2024/02/03 01:01:46;;;;;;;16.50;10.45;;;9.70;99.90;;;9.04;100.00;103057.78;4168765;28;20026;-72
2024/02/03 01:03:46;;;;;;;17.60;10.10;;;9.70;99.90;;;9.04;100.00;103060.44;4168943;28;20037;-71
2024/02/03 01:05:47;;;;;;;15.95;9.52;;;9.70;99.90;;;9.04;100.00;103056.00;4167624;28;20066;-72
2024/02/03 01:07:48;;;;;;;16.70;9.82;;;9.70;99.90;;;9.04;100.00;103052.53;4168695;28;20026;-71
2024/02/03 01:09:49;;;;;;;15.75;10.95;;;9.70;99.90;;;9.06;100.00;103055.91;4167211;28;20025;-71
2024/02/03 01:11:50;;;;;;;16.80;10.80;;;9.70;99.90;;;9.05;100.00;103054.25;4167503;28;20028;-71
2024/02/03 01:13:51;;;;;;;17.50;10.50;;;9.70;99.90;;;9.05;100.00;103052.44;4168889;28;20025;-72
2024/02/03 01:15:52;;;;;;;16.50;10.65;;;9.70;99.90;;;9.06;100.00;103050.66;4168701;28;20108;-71
2024/02/03 01:17:53;;;;;;;15.20;10.00;;;9.70;99.90;;;9.04;100.00;103049.91;4168622;28;20033;-72
2024/02/03 01:19:54;;;;;;;15.82;10.30;;;9.70;99.90;;;9.03;100.00;103053.47;4168787;28;20026;-72
2024/02/03 01:21:54;;;;;;;13.85;9.85;;;9.70;99.90;;;9.03;100.00;103049.03;4168006;28;20032;-71
2024/02/03 01:23:56;;;;;;;16.83;10.20;;;9.70;99.90;;;9.04;100.00;103047.25;4168340;28;20417;-71
2024/02/03 01:25:56;;;;;;;17.17;11.82;;;9.70;99.90;;;9.07;100.00;103057.63;4167381;28;20030;-71
2024/02/03 01:27:57;;;;;;;13.93;10.10;;;9.70;99.90;;;9.05;100.00;103054.25;4168581;28;20374;-71
2024/02/03 01:29:58;;;;;;;17.90;10.65;;;9.70;99.90;;;9.03;100.00;103056.09;4150981;28;20540;-71
2024/02/03 01:31:59;;;;;;;15.85;11.13;;;9.70;99.90;;;9.07;100.00;103057.63;4183866;28;20535;-71
2024/02/03 01:34:00;;;;;;;15.90;9.98;;;9.70;99.90;;;9.06;100.00;103054.13;4166974;28;20022;-71
2024/02/03 01:36:00;;;;;;;20.88;11.85;;;9.70;99.90;;;9.04;100.00;103057.78;4168544;28;20018;-71
2024/02/03 01:38:01;;;;;;;17.10;9.93;;;9.70;99.90;;;9.03;100.00;103056.94;4168681;28;20037;-72
2024/02/03 01:40:05;;;;;;;16.20;11.00;;;9.70;99.90;;;9.04;100.00;103063.06;4167324;28;20018;-72
2024/02/03 01:42:06;;;;;;;15.10;10.43;;;9.70;99.90;;;9.07;100.00;103068.16;4167344;28;20025;-71
2024/02/03 01:44:07;;;;;;;14.75;10.65;;;9.70;99.90;;;9.01;100.00;103063.25;4168568;28;20048;-71
2024/02/03 01:46:08;;;;;;;16.40;9.27;;;9.70;99.90;;;9.06;100.00;103062.03;4168551;28;20037;-72
2024/02/03 01:48:13;;;;;;;14.98;10.25;;;9.70;99.90;;;9.05;100.00;103064.78;4168218;28;20044;-71
2024/02/03 01:50:14;;;;;;;15.15;9.80;;;9.70;99.90;;;9.03;100.00;103061.34;4167151;28;20068;-71
2024/02/03 01:52:16;;;;;;;15.43;10.77;;;9.70;99.90;;;9.02;100.00;103060.50;4168741;28;20025;-71
2024/02/03 01:54:17;;;;;;;14.30;9.85;;;9.70;99.90;;;9.02;100.00;103059.69;4166656;28;20473;-72
2024/02/03 01:56:19;;;;;;;15.02;9.05;;;9.70;99.90;;;9.01;100.00;103058.81;4167405;28;20027;-71
2024/02/03 01:58:20;;;;;;;19.20;11.07;;;9.70;99.90;;;9.04;100.00;103057.78;4166789;28;20523;-72
2024/02/03 02:00:21;;;;;;;17.35;10.43;;;9.70;99.90;;;9.04;100.00;103066.53;4168336;28;20104;-71
2024/02/03 02:02:22;;;;;;;19.55;9.98;;;9.70;99.90;;;9.04;100.00;103066.53;4168456;28;20032;-72
2024/02/03 02:04:28;;;;;;;16.08;10.90;;;9.70;99.90;;;9.04;100.00;103063.06;4168326;28;20033;-71
2024/02/03 02:06:29;;;;;;;15.95;10.73;;;9.70;99.90;;;9.02;100.00;103055.22;4168177;28;20092;-71
2024/02/03 02:08:38;;;;;;;17.63;9.77;;;9.70;99.90;;;9.01;100.00;103056.19;4168168;28;20033;-71
2024/02/03 02:10:39;;;;;;;13.65;9.23;;;9.70;99.90;;;9.03;100.00;103062.22;4167103;28;20045;-72
2024/02/03 02:12:40;;;;;;;15.85;10.07;;;9.70;99.90;;;9.04;100.00;103061.28;4168238;28;20547;-72
2024/02/03 02:14:41;;;;;;;14.50;9.75;;;9.70;99.90;;;9.05;100.00;103065.59;4168283;28;20117;-71
2024/02/03 02:16:41;;;;;;;17.83;10.38;;;9.70;99.90;;;9.04;100.00;103061.28;4168372;28;20021;-71
2024/02/03 02:18:42;;;;;;;16.10;10.85;;;9.70;99.90;;;9.07;100.00;103054.97;4168359;28;20030;-71
2024/02/03 02:20:43;;;;;;;15.02;9.95;;;9.70;99.90;;;9.07;100.00;103050.56;4168203;28;20021;-71
2024/02/03 02:22:44;;;;;;;17.20;10.88;;;9.70;99.90;;;9.06;100.00;103050.66;4168226;28;20028;-71
2024/02/03 02:24:45;;;;;;;16.48;11.00;;;9.70;99.90;;;9.07;100.00;103053.19;4167918;28;20032;-71
2024/02/03 02:26:45;;;;;;;15.93;9.50;;;9.70;99.90;;;9.06;100.00;103046.22;4168182;28;20037;-72
2024/02/03 02:28:46;;;;;;;15.32;10.00;;;9.70;99.90;;;9.05;100.00;103035.81;4166991;28;20030;-72
2024/02/03 02:30:47;;;;;;;18.10;11.32;;;9.80;99.90;;;9.08;100.00;103049.63;4166919;28;20033;-72
2024/02/03 02:32:48;;;;;;;17.27;10.85;;;9.80;99.90;;;9.06;100.00;103048.88;4168040;28;20032;-72
2024/02/03 02:34:49;;;;;;;16.58;10.77;;;9.80;99.90;;;9.07;100.00;103052.34;4170978;28;20030;-72
2024/02/03 02:36:50;;;;;;;17.38;11.13;;;9.80;99.90;;;9.07;100.00;103049.72;4171117;28;20025;-72
2024/02/03 02:38:50;;;;;;;18.25;10.90;;;9.80;99.90;;;9.05;100.00;103044.53;4171110;28;20025;-72
2024/02/03 02:40:51;;;;;;;15.10;11.40;;;9.80;99.90;;;9.07;100.00;103041.81;4170904;28;20029;-72
2024/02/03 02:42:52;;;;;;;15.18;10.93;;;9.80;99.90;;;9.07;100.00;103034.78;4170883;28;20027;-72
2024/02/03 02:44:53;;;;;;;16.05;10.45;;;9.80;99.90;;;9.08;100.00;103043.53;4170960;28;20022;-71
2024/02/03 02:46:54;;;;;;;15.85;11.27;;;9.80;99.90;;;9.08;100.00;103033.81;4170629;28;20026;-72
2024/02/03 02:48:54;;;;;;;20.20;12.15;;;9.80;99.90;;;9.09;100.00;103032.03;4171054;28;20032;-72
2024/02/03 02:50:55;;;;;;;20.77;13.20;;;9.80;99.90;;;9.08;100.00;103031.19;4169257;28;20021;-72
2024/02/03 02:52:56;;;;;;;16.92;11.38;;;9.80;99.90;;;9.08;100.00;103022.47;4170952;28;20032;-72
2024/02/03 02:54:57;;;;;;;16.38;11.13;;;9.80;99.90;;;9.07;100.00;103012.84;4170653;28;20374;-72
2024/02/03 02:56:58;;;;;;;21.48;11.52;;;9.80;99.90;;;9.08;100.00;103017.19;4169505;28;20105;-72
2024/02/03 02:58:58;;;;;;;16.30;11.43;;;9.80;99.90;;;9.08;100.00;103011.94;4171022;28;20028;-71
2024/02/03 03:00:59;;;;;;;18.55;10.82;;;9.80;99.90;;;9.11;100.00;103017.84;4169636;28;20033;-71
2024/02/03 03:03:00;;;;;;;16.33;11.07;;;9.80;99.90;;;9.11;100.00;103017.00;4170682;28;20100;-71
2024/02/03 03:05:01;;;;;;;16.60;11.18;;;9.80;99.90;;;9.11;100.00;103017.00;4170388;28;20030;-72
2024/02/03 03:07:02;;;;;;;20.23;12.20;;;9.80;99.90;;;9.11;100.00;103011.75;4170511;28;20022;-71
2024/02/03 03:09:03;;;;;;;16.13;11.32;;;9.80;99.90;;;9.10;100.00;103004.78;4170420;28;20413;-72
2024/02/03 03:11:04;;;;;;;20.10;12.07;;;9.80;99.90;;;9.08;100.00;103002.22;4170476;28;20401;-71
2024/02/03 03:13:05;;;;;;;21.48;13.93;;;9.80;99.90;;;9.09;100.00;103001.28;4169231;28;20030;-71
2024/02/03 03:15:06;;;;;;;16.73;12.40;;;9.80;99.90;;;9.09;100.00;102998.66;4170571;28;20033;-71
2024/02/03 03:17:07;;;;;;;17.75;11.80;;;9.80;99.90;;;9.09;100.00;103013.59;4170500;28;20091;-72
2024/02/03 03:19:08;;;;;;;15.13;10.90;;;9.80;99.90;;;9.08;100.00;103006.66;4170562;28;20025;-72
2024/02/03 03:21:09;;;;;;;14.98;10.52;;;9.80;99.90;;;9.09;100.00;103000.44;4170219;28;20025;-71
2024/02/03 03:23:10;;;;;;;14.65;10.23;;;9.80;99.90;;;9.09;100.00;103003.06;4169287;28;20083;-72
2024/02/03 03:25:12;;;;;;;14.75;9.52;;;9.80;99.90;;;9.09;100.00;102997.81;4169990;28;20112;-71
2024/02/03 03:27:13;;;;;;;12.70;9.13;;;9.80;99.90;;;9.11;100.00;102995.94;4169005;28;20064;-72
2024/02/03 03:29:14;;;;;;;14.57;9.68;;;9.80;99.90;;;9.12;100.00;103000.25;4170176;28;20026;-72
2024/02/03 03:31:15;;;;;;;17.35;10.98;;;9.80;99.90;;;9.13;100.00;102997.56;4168963;28;20021;-72
2024/02/03 03:33:16;;;;;;;20.05;11.38;;;9.80;99.90;;;9.12;100.00;103002.91;4168989;28;20073;-72
2024/02/03 03:35:18;;;;;;;17.52;11.77;;;9.80;99.90;;;9.09;100.00;103001.28;4170165;28;20030;-72
2024/02/03 03:37:19;;;;;;;19.10;12.45;;;9.80;99.90;;;9.08;100.00;102998.78;4170045;28;20404;-72
2024/02/03 03:39:20;;;;;;;16.88;11.27;;;9.80;99.90;;;9.07;100.00;103000.53;4170006;28;20032;-71
2024/02/03 03:41:21;;;;;;;14.75;10.60;;;9.80;99.90;;;9.07;100.00;103005.81;4168703;28;20429;-72
2024/02/03 03:43:22;;;;;;;20.98;11.52;;;9.80;99.90;;;9.09;100.00;103003.06;4170061;28;20040;-72
2024/02/03 03:45:23;;;;;;;22.25;10.93;;;9.80;99.90;;;9.08;100.00;103001.41;4168863;28;20033;-72
2024/02/03 03:47:24;;;;;;;15.90;10.55;;;9.80;99.90;;;9.09;100.00;103017.09;4151565;28;20097;-72
2024/02/03 03:49:31;;;;;;;13.75;9.48;;;9.80;99.90;;;9.11;100.00;103017.00;4160427;28;20037;-72
2024/02/03 03:51:32;;;;;;;16.90;10.82;;;9.80;99.90;;;9.07;100.00;103015.50;4169786;28;20033;-72
2024/02/03 03:53:34;;;;;;;15.77;11.18;;;9.80;99.90;;;9.08;100.00;103007.47;4168436;28;20050;-72
2024/02/03 03:55:35;;;;;;;20.05;11.77;;;9.80;99.90;;;9.10;100.00;103005.63;4169915;28;20029;-71
2024/02/03 03:57:36;;;;;;;15.15;10.65;;;9.70;99.90;;;9.11;100.00;103001.22;4169797;28;20029;-71
2024/02/03 03:59:37;;;;;;;14.02;10.20;;;9.80;99.90;;;9.11;100.00;103002.03;4168693;28;20033;-71
2024/02/03 04:01:38;;;;;;;15.63;10.18;;;9.80;99.90;;;9.12;100.00;103008.16;4169691;28;20024;-71
2024/02/03 04:03:39;;;;;;;19.58;11.15;;;9.80;99.90;;;9.12;100.00;103000.25;4169719;28;20033;-71
2024/02/03 04:05:40;;;;;;;17.95;11.90;;;9.80;99.90;;;9.11;100.00;103002.03;4169823;28;20032;-72
2024/02/03 04:07:41;;;;;;;18.15;11.88;;;9.80;99.90;;;9.13;100.00;103001.97;4168297;28;20033;-71
2024/02/03 04:09:48;;;;;;;19.30;13.27;;;9.80;99.90;;;9.11;100.00;103001.22;4169424;28;20111;-71
2024/02/03 04:11:48;;;;;;;20.17;12.70;;;9.80;99.90;;;9.10;100.00;103000.38;4169547;28;20076;-71
2024/02/03 04:13:50;;;;;;;14.20;9.73;;;9.80;99.90;;;9.11;100.00;103006.50;4169764;28;20022;-71
2024/02/03 04:15:50;;;;;;;19.50;12.60;;;9.80;99.90;;;9.12;100.00;103003.75;4169627;28;20044;-71
2024/02/03 04:17:52;;;;;;;18.80;12.10;;;9.80;99.90;;;9.12;100.00;102995.84;4169429;28;20029;-71
2024/02/03 04:19:53;;;;;;;14.40;10.38;;;9.80;99.90;;;9.13;100.00;103001.97;4169672;28;20025;-71
2024/02/03 04:21:54;;;;;;;18.30;10.48;;;9.80;99.90;;;9.11;100.00;102995.94;4169367;28;20029;-71
2024/02/03 04:23:55;;;;;;;17.48;10.98;;;9.80;99.90;;;9.11;100.00;103001.22;4168189;28;20048;-72
2024/02/03 04:25:56;;;;;;;19.92;12.73;;;9.80;99.90;;;9.10;100.00;102987.19;4169354;28;20434;-71
2024/02/03 04:27:57;;;;;;;16.45;11.50;;;9.80;99.90;;;9.12;100.00;102997.63;4169319;28;20040;-71
2024/02/03 04:29:58;;;;;;;18.48;12.88;;;9.80;99.90;;;9.10;100.00;102992.47;4169540;28;20014;-72
2024/02/03 04:31:59;;;;;;;19.38;13.10;;;9.80;99.90;;;9.10;100.00;102989.84;4168027;28;20025;-71
2024/02/03 04:34:01;;;;;;;19.35;13.15;;;9.80;99.90;;;9.11;100.00;102988.06;4169103;28;20108;-71
2024/02/03 04:36:06;;;;;;;18.40;11.32;;;9.80;99.90;;;9.11;100.00;102985.41;4169421;28;20032;-71
2024/02/03 04:38:07;;;;;;;20.67;12.18;;;9.80;99.90;;;9.11;100.00;102982.78;4168161;28;20029;-71
2024/02/03 04:40:08;;;;;;;18.08;11.00;;;9.80;99.90;;;9.11;100.00;102985.41;4169016;28;20034;-71
2024/02/03 04:42:09;;;;;;;16.63;11.15;;;9.80;99.90;;;9.11;100.00;102982.78;4169001;28;20056;-71
2024/02/03 04:44:10;;;;;;;14.40;10.32;;;9.80;99.90;;;9.08;100.00;102981.16;4169193;28;20033;-72
2024/02/03 04:46:10;;;;;;;14.27;10.52;;;9.80;99.90;;;9.08;100.00;102993.50;4167733;28;20029;-71
2024/02/03 04:48:11;;;;;;;15.07;10.13;;;9.70;99.90;;;9.08;100.00;102990.88;4167673;28;20057;-72
2024/02/03 04:50:12;;;;;;;19.80;11.85;;;9.80;99.90;;;9.07;100.00;102992.66;4168761;28;20017;-71
2024/02/03 04:52:13;;;;;;;14.65;9.05;;;9.70;99.90;;;9.08;100.00;102988.25;4168741;28;20045;-72
2024/02/03 04:54:14;;;;;;;17.30;9.68;;;9.70;99.90;;;9.08;100.00;102986.44;4168931;28;20017;-71
2024/02/03 04:56:15;;;;;;;16.70;10.40;;;9.70;99.90;;;9.08;100.00;102982.97;4167623;28;20077;-72
2024/02/03 04:58:18;;;;;;;17.40;10.23;;;9.70;99.90;;;9.08;100.00;102983.78;4167655;28;20033;-71
2024/02/03 05:00:20;;;;;;;14.98;9.57;;;9.70;99.90;;;9.09;100.00;102985.50;4168684;28;20025;-71
2024/02/03 05:02:20;;;;;;;13.38;9.30;;;9.70;99.90;;;9.09;100.00;102987.28;4168760;28;20036;-71
2024/02/03 05:04:21;;;;;;;15.00;9.60;;;9.70;99.90;;;9.07;100.00;102986.53;4168888;28;20031;-72
2024/02/03 05:06:22;;;;;;;13.48;9.07;;;9.70;99.90;;;9.06;100.00;102985.69;4168665;28;20025;-72
2024/02/03 05:08:23;;;;;;;14.40;10.43;;;9.70;99.90;;;9.06;100.00;102985.69;4150794;28;20026;-71
2024/02/03 05:10:24;;;;;;;16.88;9.80;;;9.70;99.90;;;9.06;100.00;102987.47;4167700;28;20025;-71
2024/02/03 05:12:24;;;;;;;14.65;9.48;;;9.70;99.90;;;9.07;100.00;102995.28;4168981;28;20028;-72
2024/02/03 05:14:25;;;;;;;13.40;8.85;;;9.70;99.90;;;9.07;100.00;102987.38;4167484;28;20024;-72
2024/02/03 05:16:26;;;;;;;12.48;8.32;;;9.70;99.90;;;9.07;100.00;102991.81;4167494;28;20029;-72
2024/02/03 05:18:27;;;;;;;13.50;9.13;;;9.70;99.90;;;9.07;100.00;102986.53;4168856;28;20029;-72
2024/02/03 05:20:28;;;;;;;12.07;8.52;;;9.80;99.90;;;9.07;100.00;102984.75;4168646;28;20095;-71
2024/02/03 05:22:29;;;;;;;14.98;9.63;;;9.70;99.90;;;9.08;100.00;102982.97;4168700;28;20029;-71
2024/02/03 05:24:30;;;;;;;15.27;9.98;;;9.70;99.90;;;9.06;100.00;102982.19;4168378;28;20029;-71
2024/02/03 05:26:30;;;;;;;13.00;8.63;;;9.80;99.90;;;9.06;100.00;102976.94;4168718;28;20489;-72
2024/02/03 05:28:31;;;;;;;15.55;9.13;;;9.70;99.90;;;9.00;100.00;102974.66;4168577;28;20448;-72
2024/02/03 05:30:32;;;;;;;12.95;8.27;;;9.70;99.90;;;9.04;100.00;102978.81;4168541;28;20022;-71
2024/02/03 05:32:33;;;;;;;13.82;9.05;;;9.70;99.90;;;9.06;100.00;102976.94;4168476;28;20033;-72
2024/02/03 05:34:34;;;;;;;13.88;9.32;;;9.70;99.90;;;9.05;100.00;102978.72;4168657;28;20400;-72
2024/02/03 05:36:35;;;;;;;14.25;9.63;;;9.70;99.90;;;9.03;100.00;102979.75;4168581;28;20018;-72
2024/02/03 05:38:35;;;;;;;17.10;10.45;;;9.70;99.90;;;9.00;100.00;102977.28;4168314;28;20033;-72
2024/02/03 05:40:36;;;;;;;12.02;9.05;;;9.70;99.90;;;9.02;100.00;102975.44;4168095;28;20033;-71
2024/02/03 05:42:37;;;;;;;20.60;10.35;;;9.70;99.90;;;9.03;100.00;102988.50;4168648;28;20030;-72
2024/02/03 05:44:38;;;;;;;15.57;9.82;;;9.70;99.90;;;9.01;100.00;102971.94;4168519;28;20122;-72
2024/02/03 05:46:39;;;;;;;10.75;8.20;;;9.70;99.90;;;9.03;100.00;102980.59;4167170;28;20077;-72
2024/02/03 05:48:40;;;;;;;13.45;8.70;;;9.70;99.90;;;9.03;100.00;102977.13;4168186;28;20421;-72
2024/02/03 05:50:40;;;;;;;11.50;8.18;;;9.70;99.90;;;9.04;100.00;102989.34;4168510;28;20014;-71
2024/02/03 05:52:41;;;;;;;13.05;8.65;;;9.70;99.90;;;9.02;100.00;102981.53;4166623;28;20026;-71
2024/02/03 05:54:42;;;;;;;14.23;9.32;;;9.70;99.90;;;9.00;100.00;102979.94;4168258;28;20026;-71
2024/02/03 05:56:43;;;;;;;14.80;9.35;;;9.70;99.90;;;9.02;100.00;102972.81;4168337;28;20026;-72
2024/02/03 05:58:44;;;;;;;14.05;9.50;;;9.70;99.90;;;9.03;100.00;102975.34;4168330;28;20037;-71
2024/02/03 06:00:45;;;;;;;13.57;10.20;;;9.70;99.90;;;9.03;100.00;102971.84;4168439;28;20452;-71
2024/02/03 06:02:46;;;;;;;13.43;9.18;;;9.70;99.90;;;9.03;100.00;102972.69;4168432;28;20032;-72
2024/02/03 06:04:47;;;;;;;13.50;8.90;;;9.70;99.90;;;9.02;100.00;102976.25;4168254;28;20033;-71
2024/02/03 06:06:48;;;;;;;14.50;9.60;;;9.70;99.90;;;9.02;100.00;102975.44;4168274;28;20052;-71
2024/02/03 06:08:49;;;;;;;13.82;9.13;;;9.70;99.90;;;9.01;100.00;102979.84;4168292;28;20511;-72
2024/02/03 06:10:50;;;;;;;14.93;9.00;;;9.70;99.90;;;9.00;100.00;102972.03;4171640;28;20488;-71
2024/02/03 06:12:51;;;;;;;11.95;8.43;;;9.70;99.90;;;9.01;100.00;102973.72;4170226;28;20401;-71
2024/02/03 06:14:51;;;;;;;15.30;9.13;;;9.70;99.90;;;9.00;100.00;102972.03;4171626;28;20037;-71
2024/02/03 06:16:52;;;;;;;12.45;8.73;;;9.70;99.90;;;9.00;100.00;102966.75;4171571;28;20084;-71
2024/02/03 06:18:53;;;;;;;15.38;9.32;;;9.70;99.90;;;8.97;100.00;102962.53;4171384;28;20025;-71
2024/02/03 06:20:54;;;;;;;15.63;9.57;;;9.70;99.90;;;8.98;100.00;102968.66;4170235;28;20022;-71
2024/02/03 06:22:55;;;;;;;16.88;10.80;;;9.70;99.90;;;8.96;100.00;102970.53;4171219;28;20025;-71
2024/02/03 06:24:55;;;;;;;14.43;9.60;;;9.60;99.90;;;8.95;100.00;102979.38;4169985;28;20030;-72
2024/02/03 06:26:56;;;;;;;16.88;10.45;;;9.60;99.90;;;8.91;100.00;102973.44;4171214;28;20041;-71
2024/02/03 06:28:58;;;;;;;15.20;9.80;;;9.60;99.90;;;8.90;100.00;102971.72;4171212;28;20029;-72
2024/02/03 06:30:59;;;;;;;13.32;8.85;;;9.60;99.90;;;8.92;100.00;102979.53;4169833;28;20025;-71
2024/02/03 06:33:00;;;;;;;16.55;9.57;;;9.60;99.90;;;8.91;100.00;102976.06;4171418;28;20022;-71
2024/02/03 06:35:00;;;;;;;14.27;8.90;;;9.60;99.90;;;8.90;100.00;102976.97;4171390;28;20025;-71
2024/02/03 06:37:03;;;;;;;14.07;8.55;;;9.60;99.90;;;8.90;100.00;102985.75;4171072;28;20025;-71
2024/02/03 06:39:04;;;;;;;14.82;8.68;;;9.60;99.90;;;8.91;100.00;102991.84;4169639;28;20076;-71
2024/02/03 06:41:05;;;;;;;14.57;9.25;;;9.60;99.90;;;8.89;100.00;102986.69;4171020;28;20021;-71
2024/02/03 06:43:06;;;;;;;15.00;9.68;;;9.60;99.90;;;8.88;100.00;103000.78;4171153;28;20028;-71
2024/02/03 06:45:08;;;;;;;15.48;9.77;;;9.60;99.90;;;8.92;100.00;103005.88;4169800;28;20057;-71
2024/02/03 06:47:09;;;;;;;18.02;10.75;;;9.60;99.90;;;8.89;100.00;102991.97;4170260;28;20131;-71
2024/02/03 06:49:10;;;;;;;13.57;8.93;;;9.60;99.90;;;8.92;100.00;103003.22;4169574;28;20033;-71
2024/02/03 06:51:10;;;;;;;18.73;11.18;;;9.60;99.90;;;8.91;100.00;102997.13;4170872;28;20021;-71
2024/02/03 06:53:11;;;;;;;16.45;9.70;;;9.60;99.90;;;8.89;100.00;102985.84;4170675;28;20028;-71
2024/02/03 06:55:12;;;;;;;14.63;10.52;;;9.60;99.90;;;8.88;100.00;102985.00;4170805;28;20033;-71
2024/02/03 06:57:13;;;;;;;15.77;10.35;;;9.60;99.90;;;8.86;100.00;102986.03;4170877;28;20388;-72
2024/02/03 06:59:14;;;;;;;15.05;9.23;;;9.60;99.90;;;8.85;100.00;102993.06;4170997;28;20025;-71
2024/02/03 07:01:15;;;;;;;13.07;8.95;;;9.60;99.90;;;8.84;100.00;102988.72;4170864;28;20021;-71
2024/02/03 07:03:15;;;;;;;14.57;9.15;;;9.60;99.90;;;8.86;100.00;102986.03;4169618;28;20030;-71
2024/02/03 07:05:16;;;;;;;18.35;9.90;;;9.60;99.90;;;8.86;100.00;102989.50;4170612;28;20493;-71
2024/02/03 07:07:17;;;;;;;12.88;8.40;;;9.60;99.90;;;8.88;100.00;102984.13;4170504;28;20033;-71
2024/02/03 07:09:18;;;;;;;11.32;8.20;;;9.60;99.90;;;8.87;100.00;102985.91;4170407;28;20037;-71
2024/02/03 07:11:19;;;;;;;13.65;9.40;;;9.60;99.90;;;8.86;100.00;102986.88;4170473;28;20030;-71
2024/02/03 07:13:22;;;;;;;13.13;8.57;;;9.50;99.90;;;8.87;100.00;102992.97;4170395;28;20033;-71
2024/02/03 07:15:23;;;;;;;14.63;8.55;;;9.50;99.90;;;8.88;100.00;102994.66;4170567;28;20033;-72
2024/02/03 07:17:24;;;;;;;14.38;10.23;;;9.50;99.90;;;8.88;100.00;102992.88;4170511;28;20024;-71
2024/02/03 07:19:24;;;;;;;18.98;11.93;;;9.50;99.90;;;8.88;100.00;102992.03;4170337;28;20030;-71
2024/02/03 07:21:25;;;;;;;20.00;12.13;;;9.60;99.90;;;8.89;100.00;102999.84;4170278;28;20087;-71
2024/02/03 07:23:26;;;;;;;18.70;11.35;;;9.60;99.90;;;8.85;100.00;103000.97;4170255;28;20037;-71
2024/02/03 07:25:27;;;;;;;15.13;9.43;;;9.60;99.90;;;8.87;100.00;103000.84;4170377;28;20059;-71
2024/02/03 07:27:28;;;;;;;15.73;9.20;;;9.60;99.90;;;8.87;100.00;102990.31;4170132;28;20029;-71
2024/02/03 07:29:29;;;;;;;13.63;9.55;;;9.60;99.90;;;8.89;100.00;102993.75;4168938;28;20036;-72
2024/02/03 07:31:30;;;;;;;14.25;9.88;;;9.60;99.90;;;8.91;100.00;103002.38;4170211;28;20061;-71
2024/02/03 07:33:31;;;;;;;16.10;9.27;;;9.60;99.90;;;8.90;100.00;102998.91;4169030;28;20025;-71
2024/02/03 07:35:32;;;;;;;14.35;9.77;;;9.60;99.90;;;8.90;100.00;102990.16;4168979;28;20029;-71
2024/02/03 07:37:32;;;;;;;19.90;12.18;;;9.60;99.90;;;8.94;100.00;102982.91;4168997;28;20029;-71
2024/02/03 07:39:35;;;;;;;17.38;11.80;;;9.60;99.90;;;8.93;100.00;102989.16;4168705;28;20425;-72
2024/02/03 07:41:36;;;;;;;17.15;11.85;;;9.60;99.90;;;8.93;100.00;102987.34;4168879;28;20026;-71
2024/02/03 07:43:37;;;;;;;15.60;11.30;;;9.60;99.90;;;8.95;100.00;102993.38;4168878;28;20033;-71
2024/02/03 07:45:38;;;;;;;16.88;10.45;;;9.60;99.90;;;8.95;100.00;103001.28;4169839;28;20037;-71
2024/02/03 07:47:39;;;;;;;20.38;13.15;;;9.60;99.90;;;8.98;100.00;102994.97;4169770;28;20061;-72
2024/02/03 07:49:39;;;;;;;20.33;12.25;;;9.70;99.90;;;8.95;100.00;102996.00;4169757;28;20030;-72
2024/02/03 07:51:40;;;;;;;15.65;10.60;;;9.60;99.90;;;8.92;100.00;102992.69;4169907;28;20029;-71
2024/02/03 07:53:41;;;;;;;15.63;10.50;;;9.60;99.90;;;8.94;100.00;102998.72;4168510;28;20028;-71
2024/02/03 07:55:42;;;;;;;16.60;10.88;;;9.60;99.90;;;8.92;100.00;103001.44;4169923;28;20095;-71
2024/02/03 07:57:43;;;;;;;16.08;11.00;;;9.60;99.90;;;8.92;100.00;103000.59;4168266;28;20021;-71
2024/02/03 07:59:44;;;;;;;16.90;10.65;;;9.60;99.90;;;8.95;100.00;103003.06;4168608;28;20465;-71
2024/02/03 08:01:44;;;;;;;18.67;12.00;;;9.60;99.90;;;8.94;100.00;102994.31;4169652;28;20030;-72
2024/02/03 08:03:45;;;;;;;14.43;9.88;;;9.60;99.90;;;8.98;100.00;102997.59;4168617;28;20042;-71
2024/02/03 08:05:46;;;;;;;16.65;10.25;;;9.60;99.90;;;8.98;100.00;102981.81;4169595;28;20079;-71
2024/02/03 08:07:47;;;;;;;15.25;11.15;;;9.70;99.90;;;9.02;100.00;102996.50;4168413;28;20036;-71
2024/02/03 08:09:48;;;;;;;17.45;11.57;;;9.70;99.90;;;9.01;100.00;102989.53;4169245;28;20079;-72
2024/02/03 08:11:49;;;;;;;16.77;11.32;;;9.70;99.90;;;9.04;100.00;102994.63;4169544;28;20025;-71
2024/02/03 08:13:50;;;;;;;16.38;10.90;;;9.70;99.90;;;9.08;100.00;103006.66;4168465;28;20057;-72
2024/02/03 08:15:50;;;;;;;20.20;13.57;;;9.80;99.90;;;9.10;100.00;103000.38;4169529;28;20021;-71
2024/02/03 08:17:51;;;;;;;20.63;13.60;;;9.80;99.90;;;9.13;100.00;103007.22;4169513;28;20040;-71
2024/02/03 08:19:52;;;;;;;22.25;15.13;;;9.80;99.90;;;9.18;100.00;103013.06;4168331;28;20452;-71